LiveATC.Net - Listen to live air traffic control over the Internet! Contact for advertising information

ICAO: SUMU  IATA: MVD   Airport: Carrasco General Cesareo L. Berisso International Airport
City: Montevideo
Country: Uruguay   Continent: South America
SUMU METAR Weather: SUMU 090100Z 15017KT CAVOK 13/06 Q1019 NOSIG
SUMU Flight Activity (FlightAware)
SUMU Twr/App/Radar
Feed Status: UP   Listeners: 3
Listen right in your browser - requires Flash (in browser, requires Flash)
Click here to listen with your own player (launches your MP3 player)
SUMU Twr/App/Radar Audio Archives
SUMU Approach119.200
SUMU Approach120.200
SUMU Info121.800
SUMU Informacion121.800
SUMU Radar Control126.300
SUMU Radar Control128.000
SUMU Radar Control128.500
SUMU Tower118.100

Feed provided by:

Aviación Uruguaya -


Unauthorized use prohibited. See Terms of Service

Find LiveATC Audio Streams

Airport/ARTCC Code

(e.g., 124.400, 128.75)
Site-wide search

Browse LiveATC Feeds
LiveATC Coverage Map
Top 50 LiveATC Feeds
Bad Weather Areas

Offer a LiveATC Feed
Press Inquiries

LiveATC on iPhone
LiveATC on Android

Windows Phone
Windows 8/10

LiveATC Mobile
(Mobile browser)

ATC Audio Archives
Interesting Recordings

LiveATC Forums

Home Page
Make a Donation
LiveATC Bookstore

Terms of Use
Privacy Policy

ATC/Radar Sites
U.S. ARTCC Freqs
Canadian Air Freqs


FAA Airport Status
Nat'l Airspace Status
Arrival Demand Charts

Server Software By:

Please make a donation to help us keep growing!